createdAt,value
2019-01-13T00:02:02.044Z,97053.00
2019-01-13T00:04:31.852Z,97059.00
2019-01-13T00:07:01.240Z,97066.00
2019-01-13T00:09:30.589Z,97061.00
2019-01-13T00:11:59.965Z,97044.00
2019-01-13T00:14:29.342Z,97054.00
2019-01-13T00:16:58.699Z,97049.00
2019-01-13T00:19:28.415Z,97057.00
2019-01-13T00:21:57.786Z,97043.00
2019-01-13T00:24:27.131Z,97071.00
2019-01-13T00:26:56.559Z,97053.00
2019-01-13T00:29:25.956Z,97065.00
2019-01-13T00:31:55.331Z,97064.00
2019-01-13T00:34:24.753Z,97079.00
2019-01-13T00:36:54.133Z,97073.00
2019-01-13T00:39:23.532Z,97063.00
2019-01-13T00:41:52.912Z,97065.00
2019-01-13T00:44:22.280Z,97082.00
2019-01-13T00:46:51.637Z,97072.00
2019-01-13T00:49:24.692Z,97069.00
2019-01-13T00:51:54.065Z,97078.00
2019-01-13T00:54:23.465Z,97077.00
2019-01-13T00:56:52.866Z,97082.00
2019-01-13T00:59:22.251Z,97071.00
2019-01-13T01:01:52.901Z,97070.00
2019-01-13T01:04:22.393Z,97077.00
2019-01-13T01:06:51.850Z,97073.00
2019-01-13T01:09:21.216Z,97063.00
2019-01-13T01:11:55.750Z,97062.00
2019-01-13T01:14:25.171Z,97059.00
2019-01-13T01:16:54.525Z,97059.00
2019-01-13T01:19:24.387Z,97062.00
2019-01-13T01:21:53.770Z,97050.00
2019-01-13T01:24:23.138Z,97050.00
2019-01-13T01:26:52.522Z,97051.00
2019-01-13T01:29:21.867Z,97039.00
2019-01-13T01:31:51.243Z,97042.00
2019-01-13T01:34:20.662Z,97037.00
2019-01-13T01:36:50.055Z,97045.00
2019-01-13T01:39:19.415Z,97042.00
2019-01-13T01:41:49.261Z,97046.00
2019-01-13T01:44:18.615Z,97052.00
2019-01-13T01:46:47.989Z,97042.00
2019-01-13T01:49:17.397Z,97044.00
2019-01-13T01:51:46.784Z,97044.00
2019-01-13T01:54:16.144Z,97038.00
2019-01-13T02:16:42.908Z,97041.00
2019-01-13T02:19:12.433Z,97038.00
2019-01-13T02:21:41.792Z,97024.00
2019-01-13T02:24:11.167Z,97026.00
2019-01-13T02:26:42.088Z,97011.00
2019-01-13T02:29:11.446Z,97006.00
2019-01-13T02:31:40.816Z,97005.00
2019-01-13T02:34:10.209Z,97013.00
2019-01-13T02:36:39.573Z,96989.00
2019-01-13T02:39:09.063Z,96986.00
2019-01-13T02:41:38.436Z,96999.00
2019-01-13T02:44:07.867Z,96991.00
2019-01-13T02:46:37.252Z,96986.00
2019-01-13T02:49:06.626Z,96967.00
2019-01-13T02:51:35.973Z,96971.00
2019-01-13T02:54:05.441Z,96955.00
2019-01-13T02:56:34.843Z,96964.00
2019-01-13T02:59:04.223Z,96960.00
2019-01-13T03:01:33.636Z,96961.00
2019-01-13T03:04:03.007Z,96975.00
2019-01-13T03:06:32.383Z,96973.00
2019-01-13T03:09:01.774Z,96961.00
2019-01-13T03:11:31.147Z,96963.00
2019-01-13T03:14:00.528Z,96968.00
2019-01-13T03:16:29.915Z,96977.00
2019-01-13T03:19:01.015Z,96969.00
2019-01-13T03:21:30.398Z,96984.00
2019-01-13T03:24:00.084Z,96976.00
2019-01-13T03:26:29.518Z,96972.00
2019-01-13T03:28:58.897Z,96981.00
2019-01-13T03:31:28.266Z,96988.00
2019-01-13T03:33:58.763Z,96991.00
2019-01-13T03:36:28.273Z,96968.00
2019-01-13T03:39:01.817Z,96976.00
2019-01-13T03:41:31.197Z,96969.00
2019-01-13T03:44:00.574Z,96969.00
2019-01-13T03:46:30.000Z,96962.00
2019-01-13T03:48:59.382Z,96945.00
2019-01-13T03:51:28.723Z,96949.00
2019-01-13T03:53:58.106Z,96949.00
2019-01-13T03:56:27.485Z,96937.00
2019-01-13T03:58:56.863Z,96937.00
2019-01-13T04:01:26.268Z,96943.00
2019-01-13T04:03:55.631Z,96927.00
2019-01-13T04:06:25.005Z,96925.00
2019-01-13T04:08:54.400Z,96906.00
2019-01-13T04:11:23.848Z,96902.00
2019-01-13T04:13:53.223Z,96898.00
2019-01-13T04:16:23.113Z,96904.00
2019-01-13T04:18:52.488Z,96905.00
2019-01-13T04:21:23.365Z,96895.00
2019-01-13T04:23:52.756Z,96899.00
2019-01-13T04:26:22.131Z,96881.00
2019-01-13T04:28:51.496Z,96885.00
2019-01-13T04:31:26.671Z,96871.00
2019-01-13T04:33:52.317Z,96858.00
2019-01-13T04:36:21.692Z,96851.00
2019-01-13T04:38:51.093Z,96856.00
2019-01-13T04:41:20.454Z,96858.00
2019-01-13T04:43:49.817Z,96844.00
2019-01-13T04:46:19.225Z,96864.00
2019-01-13T04:48:48.574Z,96872.00
2019-01-13T04:51:17.967Z,96868.00
2019-01-13T04:53:47.409Z,96858.00
2019-01-13T04:56:16.771Z,96862.00
2019-01-13T04:58:46.143Z,96845.00
2019-01-13T05:01:15.546Z,96845.00
2019-01-13T05:03:44.956Z,96850.00
2019-01-13T05:06:14.334Z,96849.00
2019-01-13T05:08:43.735Z,96832.00
2019-01-13T05:11:13.131Z,96827.00
2019-01-13T05:13:42.502Z,96834.00
2019-01-13T05:16:11.897Z,96819.00
2019-01-13T05:18:41.251Z,96797.00
2019-01-13T05:21:10.625Z,96794.00
2019-01-13T05:23:40.312Z,96789.00
2019-01-13T05:26:09.666Z,96786.00
2019-01-13T05:28:39.030Z,96781.00
2019-01-13T05:31:08.410Z,96772.00
2019-01-13T05:33:37.787Z,96783.00
2019-01-13T05:36:07.154Z,96772.00
2019-01-13T05:38:36.572Z,96764.00
2019-01-13T05:41:06.020Z,96763.00
2019-01-13T05:43:35.375Z,96762.00
2019-01-13T05:46:05.016Z,96767.00
2019-01-13T05:48:34.383Z,96755.00
2019-01-13T05:51:03.757Z,96748.00
2019-01-13T05:53:33.136Z,96743.00
2019-01-13T05:56:02.538Z,96745.00
2019-01-13T05:58:31.972Z,96727.00
2019-01-13T06:01:01.439Z,96727.00
2019-01-13T06:03:30.821Z,96731.00
2019-01-13T06:06:00.198Z,96722.00
2019-01-13T06:08:29.580Z,96725.00
2019-01-13T06:10:58.949Z,96717.00
2019-01-13T06:13:28.323Z,96720.00
2019-01-13T06:15:57.704Z,96723.00
2019-01-13T06:18:27.065Z,96714.00
2019-01-13T06:20:56.416Z,96718.00
2019-01-13T06:23:26.090Z,96718.00
2019-01-13T06:25:56.620Z,96714.00
2019-01-13T06:28:25.985Z,96719.00
2019-01-13T06:30:55.389Z,96714.00
2019-01-13T06:33:24.784Z,96727.00
2019-01-13T06:35:54.163Z,96730.00
2019-01-13T06:38:23.523Z,96724.00
2019-01-13T06:40:52.895Z,96728.00
2019-01-13T06:43:22.271Z,96727.00
2019-01-13T06:45:51.664Z,96716.00
2019-01-13T06:48:21.027Z,96726.00
2019-01-13T06:50:50.403Z,96727.00
2019-01-13T06:53:19.790Z,96722.00
2019-01-13T06:55:49.150Z,96716.00
2019-01-13T06:58:18.519Z,96718.00
2019-01-13T07:00:47.887Z,96705.00
2019-01-13T07:03:17.260Z,96722.00
2019-01-13T07:05:46.641Z,96710.00
2019-01-13T07:08:16.073Z,96721.00
2019-01-13T07:10:45.426Z,96703.00
2019-01-13T07:13:14.849Z,96707.00
2019-01-13T07:15:44.229Z,96702.00
2019-01-13T07:18:13.607Z,96706.00
2019-01-13T07:20:42.957Z,96698.00
2019-01-13T07:23:12.389Z,96698.00
2019-01-13T07:25:41.728Z,96698.00
2019-01-13T07:28:11.703Z,96697.00
2019-01-13T07:30:41.500Z,96703.00
2019-01-13T07:33:10.864Z,96699.00
2019-01-13T07:35:40.213Z,96690.00
2019-01-13T07:38:09.595Z,96692.00
2019-01-13T07:40:38.975Z,96675.00
2019-01-13T07:43:08.412Z,96674.00
2019-01-13T07:45:37.770Z,96663.00
2019-01-13T07:48:07.126Z,96675.00
2019-01-13T07:50:36.495Z,96663.00
2019-01-13T07:53:05.950Z,96640.00
2019-01-13T07:55:35.309Z,96660.00
2019-01-13T07:58:04.810Z,96642.00
2019-01-13T08:00:34.249Z,96642.00
2019-01-13T08:03:03.600Z,96635.00
2019-01-13T08:05:32.955Z,96630.00
2019-01-13T08:08:02.336Z,96630.00
2019-01-13T08:10:31.714Z,96635.00
2019-01-13T08:13:01.095Z,96635.00
2019-01-13T08:15:30.539Z,96636.00
2019-01-13T08:17:59.993Z,96631.00
2019-01-13T08:20:30.203Z,96628.00
2019-01-13T08:22:59.667Z,96626.00
2019-01-13T08:25:29.151Z,96632.00
2019-01-13T08:27:58.517Z,96621.00
2019-01-13T08:30:28.766Z,96611.00
2019-01-13T08:32:58.359Z,96610.00
2019-01-13T08:35:28.480Z,96615.00
2019-01-13T08:37:58.320Z,96542.00
2019-01-13T08:40:27.772Z,96609.00
2019-01-13T08:42:57.212Z,96600.00
2019-01-13T08:45:26.689Z,96601.00
2019-01-13T08:47:56.088Z,96585.00
2019-01-13T08:50:25.878Z,96589.00
2019-01-13T08:52:57.485Z,96600.00
2019-01-13T08:55:27.179Z,96570.00
2019-01-13T08:57:56.624Z,96569.00
2019-01-13T09:00:31.165Z,96559.00
2019-01-13T09:03:00.642Z,96558.00
2019-01-13T09:05:30.072Z,96555.00
2019-01-13T09:07:59.461Z,96559.00
2019-01-13T09:10:28.967Z,96558.00
2019-01-13T09:12:58.360Z,96565.00
2019-01-13T09:15:27.889Z,96549.00
2019-01-13T09:17:59.062Z,96560.00
2019-01-13T09:20:29.443Z,96554.00
2019-01-13T09:23:00.288Z,96550.00
2019-01-13T09:25:29.764Z,96549.00
2019-01-13T09:27:59.203Z,96530.00
2019-01-13T09:30:30.436Z,96543.00
2019-01-13T09:33:00.491Z,96548.00
2019-01-13T09:35:29.935Z,96538.00
2019-01-13T09:37:59.302Z,96533.00
2019-01-13T09:40:30.114Z,96526.00
2019-01-13T09:42:59.912Z,96520.00
2019-01-13T09:45:35.958Z,96508.00
2019-01-13T09:48:05.461Z,96526.00
2019-01-13T09:50:35.008Z,96515.00
2019-01-13T09:53:04.751Z,96504.00
2019-01-13T09:55:34.122Z,96488.00
2019-01-13T09:58:03.575Z,96503.00
2019-01-13T10:00:35.291Z,96489.00
2019-01-13T10:03:05.065Z,96490.00
2019-01-13T10:05:34.589Z,96498.00
2019-01-13T10:08:04.053Z,96502.00
2019-01-13T10:10:33.432Z,96503.00
2019-01-13T10:13:02.940Z,96488.00
2019-01-13T10:15:32.422Z,96466.00
2019-01-13T10:18:03.324Z,96459.00
2019-01-13T10:20:32.705Z,96477.00
2019-01-13T10:23:02.145Z,96455.00
2019-01-13T10:25:31.752Z,96463.00
2019-01-13T10:28:01.183Z,96429.00
2019-01-13T10:30:31.463Z,96455.00
2019-01-13T10:33:02.614Z,96427.00
2019-01-13T10:35:32.329Z,96431.00
2019-01-13T10:38:01.870Z,96431.00
2019-01-13T10:40:31.477Z,96434.00
2019-01-13T10:43:01.074Z,96451.00
2019-01-13T10:45:31.228Z,96454.00
2019-01-13T10:48:00.912Z,96450.00
2019-01-13T10:50:31.195Z,96446.00
2019-01-13T10:53:02.010Z,96425.00
2019-01-13T10:55:31.464Z,96426.00
2019-01-13T10:58:00.836Z,96412.00
2019-01-13T11:00:34.790Z,96406.00
2019-01-13T11:03:04.301Z,96396.00
2019-01-13T11:05:33.727Z,96386.00
2019-01-13T11:08:11.738Z,96392.00
2019-01-13T11:10:41.385Z,96388.00
2019-01-13T11:13:17.293Z,96382.00
2019-01-13T11:15:46.665Z,96363.00
2019-01-13T11:18:16.060Z,96357.00
2019-01-13T11:20:52.540Z,96361.00
2019-01-13T11:23:21.927Z,96347.00
2019-01-13T11:25:54.457Z,96346.00
2019-01-13T11:28:30.627Z,96332.00
2019-01-13T11:31:06.658Z,96332.00
2019-01-13T11:33:36.056Z,96338.00
2019-01-13T11:36:06.615Z,96312.00
2019-01-13T11:38:37.035Z,96317.00
2019-01-13T11:41:06.434Z,96335.00
2019-01-13T11:43:35.808Z,96339.00
2019-01-13T11:46:05.429Z,96343.00
2019-01-13T11:48:34.810Z,96315.00
2019-01-13T11:51:04.415Z,96324.00
2019-01-13T11:53:33.823Z,96312.00
2019-01-13T11:56:03.358Z,96326.00
2019-01-13T11:58:32.726Z,96291.00
2019-01-13T12:01:07.522Z,96320.00
2019-01-13T12:03:36.879Z,96300.00
2019-01-13T12:06:06.492Z,96305.00
2019-01-13T12:08:42.441Z,96305.00
2019-01-13T12:11:11.810Z,96297.00
2019-01-13T12:13:41.171Z,96293.00
2019-01-13T12:16:11.474Z,96294.00
2019-01-13T12:18:40.920Z,96288.00
2019-01-13T12:21:10.349Z,96299.00
2019-01-13T12:23:39.735Z,96286.00
2019-01-13T12:26:09.111Z,96279.00
2019-01-13T12:28:38.459Z,96271.00
2019-01-13T12:31:07.835Z,96267.00
2019-01-13T12:33:37.205Z,96264.00
2019-01-13T12:36:06.580Z,96266.00
2019-01-13T12:38:37.731Z,96273.00
2019-01-13T12:41:07.168Z,96267.00
2019-01-13T12:43:36.539Z,96250.00
2019-01-13T12:46:05.924Z,96248.00
2019-01-13T12:48:35.281Z,96247.00
2019-01-13T12:51:04.721Z,96238.00
2019-01-13T12:53:37.444Z,96230.00
2019-01-13T12:56:06.794Z,96208.00
2019-01-13T12:58:36.216Z,96220.00
2019-01-13T13:01:06.078Z,96227.00
2019-01-13T13:03:35.425Z,96240.00
2019-01-13T13:06:05.155Z,96217.00
2019-01-13T13:08:34.532Z,96219.00
2019-01-13T13:11:03.980Z,96204.00
2019-01-13T13:13:33.414Z,96206.00
2019-01-13T13:16:02.882Z,96210.00
2019-01-13T13:18:32.257Z,96211.00
2019-01-13T13:21:01.618Z,96216.00
2019-01-13T13:23:31.373Z,96199.00
2019-01-13T13:26:00.734Z,96210.00
2019-01-13T13:28:30.111Z,96195.00
2019-01-13T13:30:59.517Z,96189.00
2019-01-13T13:33:28.869Z,96194.00
2019-01-13T13:35:58.235Z,96181.00
2019-01-13T13:38:27.696Z,96175.00
2019-01-13T13:40:58.859Z,96174.00
2019-01-13T13:43:31.498Z,96171.00
2019-01-13T13:46:01.023Z,96157.00
2019-01-13T13:48:30.459Z,96157.00
2019-01-13T13:50:59.906Z,96174.00
2019-01-13T13:53:29.282Z,96169.00
2019-01-13T13:55:58.730Z,96159.00
2019-01-13T13:58:28.084Z,96140.00
2019-01-13T14:00:57.534Z,96158.00
2019-01-13T14:03:26.952Z,96167.00
2019-01-13T14:05:56.321Z,96155.00
2019-01-13T14:08:25.705Z,96138.00
2019-01-13T14:10:55.075Z,96132.00
2019-01-13T14:13:24.429Z,96122.00
2019-01-13T14:15:53.819Z,96126.00
2019-01-13T14:18:23.197Z,96120.00
2019-01-13T14:20:52.543Z,96114.00
2019-01-13T14:23:21.924Z,96121.00
2019-01-13T14:25:51.280Z,96131.00
2019-01-13T14:28:20.628Z,96113.00
2019-01-13T14:30:50.273Z,96096.00
2019-01-13T14:33:19.631Z,96117.00
2019-01-13T14:35:48.993Z,96113.00
2019-01-13T14:38:18.375Z,96113.00
2019-01-13T14:40:47.750Z,96102.00
2019-01-13T14:43:18.216Z,96107.00
2019-01-13T14:45:47.594Z,96093.00
2019-01-13T14:48:17.212Z,96075.00
2019-01-13T14:50:46.528Z,96078.00
2019-01-13T14:53:19.156Z,96100.00
2019-01-13T14:55:48.509Z,96099.00
2019-01-13T14:58:17.859Z,96109.00
2019-01-13T15:00:47.250Z,96091.00
2019-01-13T15:03:16.613Z,96096.00
2019-01-13T15:05:45.964Z,96088.00
2019-01-13T15:08:15.333Z,96106.00
2019-01-13T15:10:44.685Z,96095.00
2019-01-13T15:13:14.045Z,96091.00
2019-01-13T15:15:43.840Z,96105.00
2019-01-13T15:18:13.187Z,96098.00
2019-01-13T15:20:42.534Z,96096.00
2019-01-13T15:23:11.903Z,96080.00
2019-01-13T15:25:41.260Z,96088.00
2019-01-13T15:28:10.607Z,96095.00
2019-01-13T15:30:39.992Z,96109.00
2019-01-13T15:33:09.346Z,96083.00
2019-01-13T15:35:38.778Z,96096.00
2019-01-13T15:38:08.897Z,96089.00
2019-01-13T15:40:38.721Z,96082.00
2019-01-13T15:43:08.177Z,96083.00
2019-01-13T15:45:37.881Z,96079.00
2019-01-13T15:48:07.774Z,96064.00
2019-01-13T15:50:37.207Z,96064.00
2019-01-13T15:53:06.689Z,96097.00
2019-01-13T15:55:36.056Z,96083.00
2019-01-13T15:58:05.913Z,96078.00
2019-01-13T16:00:36.056Z,96087.00
2019-01-13T16:03:07.009Z,96078.00
2019-01-13T16:05:36.388Z,96091.00
2019-01-13T16:08:05.941Z,96076.00
2019-01-13T16:10:35.299Z,96086.00
2019-01-13T16:13:05.115Z,96086.00
2019-01-13T16:15:34.676Z,96100.00
2019-01-13T16:18:04.282Z,96096.00
2019-01-13T16:20:36.265Z,96105.00
2019-01-13T16:23:06.347Z,96090.00
2019-01-13T16:25:35.704Z,96086.00
2019-01-13T16:28:05.480Z,96087.00
2019-01-13T16:30:34.934Z,96076.00
2019-01-13T16:33:04.376Z,96082.00
2019-01-13T16:35:33.807Z,96094.00
2019-01-13T16:38:03.251Z,96092.00
2019-01-13T16:40:32.613Z,96078.00
2019-01-13T16:43:01.969Z,96078.00
2019-01-13T16:45:31.772Z,96071.00
2019-01-13T16:48:01.518Z,96060.00
2019-01-13T16:50:30.956Z,96070.00
2019-01-13T16:53:00.418Z,96060.00
2019-01-13T16:55:29.866Z,96066.00
2019-01-13T16:57:59.311Z,96039.00
2019-01-13T17:00:30.222Z,96043.00
2019-01-13T17:02:59.669Z,96045.00
2019-01-13T17:05:30.753Z,96042.00
2019-01-13T17:08:00.222Z,96032.00
2019-01-13T17:10:29.714Z,96042.00
2019-01-13T17:12:59.082Z,96051.00
2019-01-13T17:15:30.992Z,96041.00
2019-01-13T17:18:00.492Z,96051.00
2019-01-13T17:20:29.866Z,96031.00
2019-01-13T17:22:59.369Z,96024.00
2019-01-13T17:25:29.090Z,96025.00
2019-01-13T17:27:58.581Z,96016.00
2019-01-13T17:30:31.473Z,96006.00
2019-01-13T17:33:00.870Z,96030.00
2019-01-13T17:35:30.236Z,96005.00
2019-01-13T17:37:59.667Z,96014.00
2019-01-13T17:40:29.177Z,96016.00
2019-01-13T17:42:58.508Z,96007.00
2019-01-13T17:45:30.703Z,96011.00
2019-01-13T17:48:00.072Z,96024.00
2019-01-13T17:50:30.015Z,96020.00
2019-01-13T17:52:59.849Z,96005.00
2019-01-13T17:55:30.209Z,96009.00
2019-01-13T17:57:59.604Z,95999.00
2019-01-13T18:00:42.504Z,96006.00
2019-01-13T18:03:19.210Z,95993.00
2019-01-13T18:05:48.586Z,95986.00
2019-01-13T18:08:17.933Z,95980.00
2019-01-13T18:10:47.298Z,95981.00
2019-01-13T18:13:16.977Z,95980.00
2019-01-13T18:15:46.338Z,95985.00
2019-01-13T18:18:15.672Z,96005.00
2019-01-13T18:20:45.066Z,95998.00
2019-01-13T18:23:14.423Z,96004.00
2019-01-13T18:25:43.797Z,96005.00
2019-01-13T18:28:13.456Z,96018.00
2019-01-13T18:30:42.825Z,96000.00
2019-01-13T18:33:12.182Z,96014.00
2019-01-13T18:35:41.913Z,96021.00
2019-01-13T18:38:11.271Z,96019.00
2019-01-13T18:40:40.698Z,96008.00
2019-01-13T18:43:10.067Z,95998.00
2019-01-13T18:45:39.415Z,95992.00
2019-01-13T18:48:08.854Z,96002.00
2019-01-13T18:50:38.294Z,95976.00
2019-01-13T18:53:14.533Z,96003.00
2019-01-13T18:55:43.964Z,95995.00
2019-01-13T18:58:13.385Z,96024.00
2019-01-13T19:00:42.817Z,96039.00
2019-01-13T19:03:12.169Z,96071.00
2019-01-13T19:05:41.544Z,96075.00
2019-01-13T19:08:10.917Z,96083.00
2019-01-13T19:10:50.600Z,96083.00
2019-01-13T19:13:39.075Z,96066.00
2019-01-13T19:16:12.992Z,96078.00
2019-01-13T19:18:42.354Z,96068.00
2019-01-13T19:21:11.721Z,96078.00
2019-01-13T19:23:41.115Z,96071.00
2019-01-13T19:26:10.484Z,96073.00
2019-01-13T19:28:39.903Z,96058.00
2019-01-13T19:31:09.289Z,96070.00
2019-01-13T19:33:38.660Z,96061.00
2019-01-13T19:36:11.273Z,96059.00
2019-01-13T19:38:41.026Z,96057.00
2019-01-13T19:41:10.376Z,96065.00
2019-01-13T19:43:39.743Z,96052.00
2019-01-13T19:46:09.120Z,96058.00
2019-01-13T19:48:38.477Z,96065.00
2019-01-13T19:51:07.860Z,96063.00
2019-01-13T19:53:38.593Z,96080.00
2019-01-13T19:56:08.097Z,96096.00
2019-01-13T19:58:37.450Z,96079.00
2019-01-13T20:01:07.639Z,96081.00
2019-01-13T20:03:36.998Z,96086.00
2019-01-13T20:06:06.431Z,96095.00
2019-01-13T20:08:37.539Z,96078.00
2019-01-13T20:11:07.484Z,96103.00
2019-01-13T20:13:36.904Z,96104.00
2019-01-13T20:16:06.345Z,96093.00
2019-01-13T20:18:35.697Z,96108.00
2019-01-13T20:21:05.185Z,96105.00
2019-01-13T20:23:34.963Z,96099.00
2019-01-13T20:26:04.395Z,96086.00
2019-01-13T20:28:33.768Z,96108.00
2019-01-13T20:31:03.140Z,96098.00
2019-01-13T20:33:32.508Z,96092.00
2019-01-13T20:36:01.874Z,96080.00
2019-01-13T20:38:31.242Z,96108.00
2019-01-13T20:41:00.603Z,96091.00
2019-01-13T20:43:29.962Z,96099.00
2019-01-13T20:45:59.398Z,96118.00
2019-01-13T20:48:28.751Z,96107.00
2019-01-13T20:50:58.103Z,96120.00
2019-01-13T20:53:27.484Z,96136.00
2019-01-13T20:55:57.252Z,96110.00
2019-01-13T20:58:26.610Z,96114.00
2019-01-13T21:00:55.985Z,96112.00
2019-01-13T21:03:25.419Z,96146.00
2019-01-13T21:05:54.767Z,96123.00
2019-01-13T21:08:25.037Z,96126.00
2019-01-13T21:10:54.394Z,96128.00
2019-01-13T21:13:23.737Z,96130.00
2019-01-13T21:15:53.223Z,96130.00
2019-01-13T21:18:22.587Z,96137.00
2019-01-13T21:20:51.938Z,96130.00
2019-01-13T21:23:21.317Z,96123.00
2019-01-13T21:25:50.664Z,96147.00
2019-01-13T21:28:20.157Z,96127.00
2019-01-13T21:30:49.875Z,96132.00
2019-01-13T21:33:19.253Z,96126.00
2019-01-13T21:35:48.624Z,96134.00
2019-01-13T21:38:18.040Z,96126.00
2019-01-13T21:40:47.419Z,96136.00
2019-01-13T21:43:16.793Z,96140.00
2019-01-13T21:45:46.370Z,96124.00
2019-01-13T21:48:15.731Z,96137.00
2019-01-13T21:50:45.109Z,96137.00
2019-01-13T21:53:14.506Z,96126.00
2019-01-13T21:55:43.903Z,96135.00
2019-01-13T21:58:13.561Z,96156.00
2019-01-13T22:00:42.942Z,96158.00
2019-01-13T22:03:12.303Z,96170.00
2019-01-13T22:05:41.682Z,96173.00
2019-01-13T22:08:11.125Z,96184.00
2019-01-13T22:10:40.498Z,96178.00
2019-01-13T22:13:09.886Z,96193.00
2019-01-13T22:15:39.746Z,96180.00
2019-01-13T22:18:09.513Z,96194.00
2019-01-13T22:20:39.117Z,96201.00
2019-01-13T22:23:08.532Z,96197.00
2019-01-13T22:25:38.034Z,96190.00
2019-01-13T22:28:07.397Z,96193.00
2019-01-13T22:30:36.787Z,96195.00
2019-01-13T22:33:06.250Z,96201.00
2019-01-13T22:35:35.625Z,96214.00
2019-01-13T22:38:05.191Z,96200.00
2019-01-13T22:40:34.569Z,96210.00
2019-01-13T22:43:04.146Z,96191.00
2019-01-13T22:45:35.180Z,96209.00
2019-01-13T22:48:04.902Z,96223.00
2019-01-13T22:50:34.265Z,96215.00
2019-01-13T22:53:05.207Z,96206.00
2019-01-13T22:55:34.601Z,96220.00
2019-01-13T22:58:04.150Z,96230.00
2019-01-13T23:00:49.550Z,96230.00
2019-01-13T23:03:20.244Z,96209.00
2019-01-13T23:05:55.671Z,96207.00
2019-01-13T23:08:23.830Z,96204.00
2019-01-13T23:10:56.430Z,96211.00
2019-01-13T23:13:25.774Z,96223.00
2019-01-13T23:15:55.598Z,96216.00
2019-01-13T23:18:24.933Z,96218.00
2019-01-13T23:20:54.298Z,96219.00
2019-01-13T23:23:23.700Z,96217.00
2019-01-13T23:25:53.059Z,96232.00
2019-01-13T23:28:22.419Z,96219.00
2019-01-13T23:30:51.786Z,96233.00
2019-01-13T23:33:21.150Z,96235.00
2019-01-13T23:35:50.660Z,96229.00
2019-01-13T23:38:20.061Z,96219.00
2019-01-13T23:40:49.424Z,96220.00
2019-01-13T23:43:18.801Z,96222.00
2019-01-13T23:45:48.195Z,96223.00
2019-01-13T23:48:17.547Z,96214.00
2019-01-13T23:50:46.971Z,96219.00
2019-01-13T23:53:16.306Z,96218.00
2019-01-13T23:55:45.690Z,96210.00
2019-01-13T23:58:15.057Z,96228.00
